sensor_id;sensor_type;location;lat;lon;timestamp;P1;durP1;ratioP1;P2;durP2;ratioP2
16977;SDS011;8605;52.548;4.918;2022-10-26T00:02:13;6.23;;;3.00;;
16977;SDS011;8605;52.548;4.918;2022-10-26T00:07:37;10.77;;;2.90;;
16977;SDS011;8605;52.548;4.918;2022-10-26T00:13:07;5.20;;;2.43;;
16977;SDS011;8605;52.548;4.918;2022-10-26T00:18:32;4.90;;;2.53;;
16977;SDS011;8605;52.548;4.918;2022-10-26T00:23:56;5.77;;;2.97;;
16977;SDS011;8605;52.548;4.918;2022-10-26T00:29:20;5.40;;;3.83;;
16977;SDS011;8605;52.548;4.918;2022-10-26T00:34:43;3.47;;;2.80;;
16977;SDS011;8605;52.548;4.918;2022-10-26T00:40:08;5.33;;;2.97;;
16977;SDS011;8605;52.548;4.918;2022-10-26T00:45:32;5.97;;;3.13;;
16977;SDS011;8605;52.548;4.918;2022-10-26T00:50:55;5.27;;;2.63;;
16977;SDS011;8605;52.548;4.918;2022-10-26T00:56:22;7.80;;;3.73;;
16977;SDS011;8605;52.548;4.918;2022-10-26T01:01:45;7.93;;;2.67;;
16977;SDS011;8605;52.548;4.918;2022-10-26T01:07:09;6.67;;;3.13;;
16977;SDS011;8605;52.548;4.918;2022-10-26T01:12:34;6.30;;;2.23;;
16977;SDS011;8605;52.548;4.918;2022-10-26T01:18:00;3.83;;;2.80;;
16977;SDS011;8605;52.548;4.918;2022-10-26T01:23:29;9.63;;;3.23;;
16977;SDS011;8605;52.548;4.918;2022-10-26T01:29:05;3.97;;;2.27;;
16977;SDS011;8605;52.548;4.918;2022-10-26T01:34:50;5.27;;;2.67;;
16977;SDS011;8605;52.548;4.918;2022-10-26T01:40:18;5.97;;;2.83;;
16977;SDS011;8605;52.548;4.918;2022-10-26T01:45:44;6.60;;;2.67;;
16977;SDS011;8605;52.548;4.918;2022-10-26T01:51:10;6.27;;;3.07;;
16977;SDS011;8605;52.548;4.918;2022-10-26T01:56:34;8.70;;;4.57;;
16977;SDS011;8605;52.548;4.918;2022-10-26T02:02:17;9.80;;;4.50;;
16977;SDS011;8605;52.548;4.918;2022-10-26T02:07:52;6.47;;;2.80;;
16977;SDS011;8605;52.548;4.918;2022-10-26T02:13:19;7.17;;;4.03;;
16977;SDS011;8605;52.548;4.918;2022-10-26T02:18:47;6.23;;;3.80;;
16977;SDS011;8605;52.548;4.918;2022-10-26T02:24:14;8.93;;;4.77;;
16977;SDS011;8605;52.548;4.918;2022-10-26T02:29:39;11.10;;;5.17;;
16977;SDS011;8605;52.548;4.918;2022-10-26T02:35:03;7.60;;;4.37;;
16977;SDS011;8605;52.548;4.918;2022-10-26T02:40:28;6.73;;;4.20;;
16977;SDS011;8605;52.548;4.918;2022-10-26T02:45:52;10.60;;;5.50;;
16977;SDS011;8605;52.548;4.918;2022-10-26T02:51:19;9.63;;;4.67;;
16977;SDS011;8605;52.548;4.918;2022-10-26T02:56:48;10.63;;;3.77;;
16977;SDS011;8605;52.548;4.918;2022-10-26T03:02:14;7.60;;;4.23;;
16977;SDS011;8605;52.548;4.918;2022-10-26T03:07:38;6.87;;;4.20;;
16977;SDS011;8605;52.548;4.918;2022-10-26T03:13:03;14.23;;;5.83;;
16977;SDS011;8605;52.548;4.918;2022-10-26T03:18:26;5.73;;;3.67;;
16977;SDS011;8605;52.548;4.918;2022-10-26T03:23:49;9.43;;;3.80;;
16977;SDS011;8605;52.548;4.918;2022-10-26T03:29:13;6.20;;;3.17;;
16977;SDS011;8605;52.548;4.918;2022-10-26T03:34:36;6.67;;;3.50;;
16977;SDS011;8605;52.548;4.918;2022-10-26T03:39:59;5.53;;;3.80;;
16977;SDS011;8605;52.548;4.918;2022-10-26T03:45:24;7.43;;;2.80;;
16977;SDS011;8605;52.548;4.918;2022-10-26T03:50:47;4.47;;;3.37;;
16977;SDS011;8605;52.548;4.918;2022-10-26T03:56:10;6.70;;;3.30;;
16977;SDS011;8605;52.548;4.918;2022-10-26T04:01:37;3.63;;;2.03;;
16977;SDS011;8605;52.548;4.918;2022-10-26T04:07:00;5.17;;;2.40;;
16977;SDS011;8605;52.548;4.918;2022-10-26T04:12:23;5.37;;;3.57;;
16977;SDS011;8605;52.548;4.918;2022-10-26T04:17:49;11.70;;;2.67;;
16977;SDS011;8605;52.548;4.918;2022-10-26T04:23:17;6.43;;;3.00;;
16977;SDS011;8605;52.548;4.918;2022-10-26T04:28:41;4.23;;;2.90;;
16977;SDS011;8605;52.548;4.918;2022-10-26T04:34:05;4.27;;;2.73;;
16977;SDS011;8605;52.548;4.918;2022-10-26T04:39:28;8.30;;;2.87;;
16977;SDS011;8605;52.548;4.918;2022-10-26T04:44:51;4.73;;;2.67;;
16977;SDS011;8605;52.548;4.918;2022-10-26T04:50:15;3.57;;;2.30;;
16977;SDS011;8605;52.548;4.918;2022-10-26T04:55:39;5.00;;;2.90;;
16977;SDS011;8605;52.548;4.918;2022-10-26T05:01:02;7.57;;;2.80;;
16977;SDS011;8605;52.548;4.918;2022-10-26T05:06:26;6.47;;;3.10;;
16977;SDS011;8605;52.548;4.918;2022-10-26T05:11:50;5.27;;;2.77;;
16977;SDS011;8605;52.548;4.918;2022-10-26T05:17:14;5.33;;;3.50;;
16977;SDS011;8605;52.548;4.918;2022-10-26T05:22:38;9.53;;;4.07;;
16977;SDS011;8605;52.548;4.918;2022-10-26T05:28:04;6.30;;;3.23;;
16977;SDS011;8605;52.548;4.918;2022-10-26T05:33:30;5.57;;;3.43;;
16977;SDS011;8605;52.548;4.918;2022-10-26T05:38:57;5.57;;;3.30;;
16977;SDS011;8605;52.548;4.918;2022-10-26T05:44:21;4.73;;;3.03;;
16977;SDS011;8605;52.548;4.918;2022-10-26T05:49:44;4.83;;;3.20;;
16977;SDS011;8605;52.548;4.918;2022-10-26T05:55:10;5.27;;;2.23;;
16977;SDS011;8605;52.548;4.918;2022-10-26T06:00:34;6.50;;;3.03;;
16977;SDS011;8605;52.548;4.918;2022-10-26T06:05:58;5.87;;;3.23;;
16977;SDS011;8605;52.548;4.918;2022-10-26T06:11:27;3.77;;;2.87;;
16977;SDS011;8605;52.548;4.918;2022-10-26T06:16:55;6.87;;;2.83;;
16977;SDS011;8605;52.548;4.918;2022-10-26T06:22:27;5.20;;;2.97;;
16977;SDS011;8605;52.548;4.918;2022-10-26T06:28:10;7.93;;;4.43;;
16977;SDS011;8605;52.548;4.918;2022-10-26T06:33:44;5.47;;;2.50;;
16977;SDS011;8605;52.548;4.918;2022-10-26T06:39:08;5.03;;;2.73;;
16977;SDS011;8605;52.548;4.918;2022-10-26T06:44:34;5.97;;;2.40;;
16977;SDS011;8605;52.548;4.918;2022-10-26T06:50:00;3.57;;;2.00;;
16977;SDS011;8605;52.548;4.918;2022-10-26T06:55:28;3.77;;;2.03;;
16977;SDS011;8605;52.548;4.918;2022-10-26T07:00:54;6.03;;;1.80;;
16977;SDS011;8605;52.548;4.918;2022-10-26T07:06:18;7.67;;;2.13;;
16977;SDS011;8605;52.548;4.918;2022-10-26T07:11:41;2.80;;;2.47;;
16977;SDS011;8605;52.548;4.918;2022-10-26T07:17:06;3.53;;;1.97;;
16977;SDS011;8605;52.548;4.918;2022-10-26T07:22:31;20.20;;;3.10;;
16977;SDS011;8605;52.548;4.918;2022-10-26T07:27:55;6.53;;;2.37;;
16977;SDS011;8605;52.548;4.918;2022-10-26T07:33:20;3.10;;;1.77;;
16977;SDS011;8605;52.548;4.918;2022-10-26T07:38:43;7.43;;;2.20;;
16977;SDS011;8605;52.548;4.918;2022-10-26T07:44:06;4.57;;;1.87;;
16977;SDS011;8605;52.548;4.918;2022-10-26T07:49:31;13.50;;;2.90;;
16977;SDS011;8605;52.548;4.918;2022-10-26T07:54:54;3.07;;;2.10;;
16977;SDS011;8605;52.548;4.918;2022-10-26T08:00:17;6.57;;;3.10;;
16977;SDS011;8605;52.548;4.918;2022-10-26T08:05:41;7.20;;;2.30;;
16977;SDS011;8605;52.548;4.918;2022-10-26T08:11:05;4.37;;;2.17;;
16977;SDS011;8605;52.548;4.918;2022-10-26T08:16:28;3.93;;;2.77;;
16977;SDS011;8605;52.548;4.918;2022-10-26T08:21:53;4.70;;;2.63;;
16977;SDS011;8605;52.548;4.918;2022-10-26T08:27:16;6.60;;;2.60;;
16977;SDS011;8605;52.548;4.918;2022-10-26T08:32:39;9.70;;;2.90;;
16977;SDS011;8605;52.548;4.918;2022-10-26T08:38:04;7.13;;;2.40;;
16977;SDS011;8605;52.548;4.918;2022-10-26T08:43:28;5.50;;;2.27;;
16977;SDS011;8605;52.548;4.918;2022-10-26T08:48:55;5.80;;;1.57;;
16977;SDS011;8605;52.548;4.918;2022-10-26T08:54:29;7.07;;;1.67;;
16977;SDS011;8605;52.548;4.918;2022-10-26T08:59:58;6.17;;;3.07;;
16977;SDS011;8605;52.548;4.918;2022-10-26T09:05:26;2.87;;;1.80;;
16977;SDS011;8605;52.548;4.918;2022-10-26T09:11:03;4.90;;;1.77;;
16977;SDS011;8605;52.548;4.918;2022-10-26T09:16:31;2.13;;;1.37;;
16977;SDS011;8605;52.548;4.918;2022-10-26T09:22:00;4.53;;;2.23;;
16977;SDS011;8605;52.548;4.918;2022-10-26T09:27:28;10.83;;;2.53;;
16977;SDS011;8605;52.548;4.918;2022-10-26T09:32:52;7.40;;;2.57;;
16977;SDS011;8605;52.548;4.918;2022-10-26T09:38:19;5.17;;;1.63;;
16977;SDS011;8605;52.548;4.918;2022-10-26T09:43:47;3.25;;;2.40;;
16977;SDS011;8605;52.548;4.918;2022-10-26T09:49:12;7.40;;;3.00;;
16977;SDS011;8605;52.548;4.918;2022-10-26T09:54:37;4.07;;;3.35;;
16977;SDS011;8605;52.548;4.918;2022-10-26T10:00:02;4.60;;;2.20;;
16977;SDS011;8605;52.548;4.918;2022-10-26T10:05:27;3.63;;;1.97;;
16977;SDS011;8605;52.548;4.918;2022-10-26T10:11:12;4.80;;;2.13;;
16977;SDS011;8605;52.548;4.918;2022-10-26T10:16:37;6.20;;;2.70;;
16977;SDS011;8605;52.548;4.918;2022-10-26T10:22:00;4.28;;;2.50;;
16977;SDS011;8605;52.548;4.918;2022-10-26T10:27:30;9.93;;;2.45;;
16977;SDS011;8605;52.548;4.918;2022-10-26T10:33:05;5.97;;;2.03;;
16977;SDS011;8605;52.548;4.918;2022-10-26T10:38:29;4.75;;;2.90;;
16977;SDS011;8605;52.548;4.918;2022-10-26T10:44:04;5.00;;;2.92;;
16977;SDS011;8605;52.548;4.918;2022-10-26T10:49:29;7.07;;;2.28;;
16977;SDS011;8605;52.548;4.918;2022-10-26T10:54:55;4.53;;;2.22;;
16977;SDS011;8605;52.548;4.918;2022-10-26T11:00:24;4.22;;;2.15;;
16977;SDS011;8605;52.548;4.918;2022-10-26T11:05:52;3.53;;;1.98;;
16977;SDS011;8605;52.548;4.918;2022-10-26T11:11:23;4.35;;;1.98;;
16977;SDS011;8605;52.548;4.918;2022-10-26T11:16:49;6.32;;;3.08;;
16977;SDS011;8605;52.548;4.918;2022-10-26T11:22:16;6.80;;;2.22;;
16977;SDS011;8605;52.548;4.918;2022-10-26T11:27:44;9.60;;;2.03;;
16977;SDS011;8605;52.548;4.918;2022-10-26T11:33:10;3.20;;;1.95;;
16977;SDS011;8605;52.548;4.918;2022-10-26T11:38:39;8.57;;;3.08;;
16977;SDS011;8605;52.548;4.918;2022-10-26T11:44:18;4.53;;;1.98;;
16977;SDS011;8605;52.548;4.918;2022-10-26T11:49:45;5.05;;;1.58;;
16977;SDS011;8605;52.548;4.918;2022-10-26T11:55:13;5.32;;;1.80;;
16977;SDS011;8605;52.548;4.918;2022-10-26T12:06:03;6.93;;;2.53;;
16977;SDS011;8605;52.548;4.918;2022-10-26T12:11:33;6.47;;;1.52;;
16977;SDS011;8605;52.548;4.918;2022-10-26T12:17:01;9.45;;;3.00;;
16977;SDS011;8605;52.548;4.918;2022-10-26T12:22:33;3.13;;;1.65;;
16977;SDS011;8605;52.548;4.918;2022-10-26T12:28:00;2.97;;;1.52;;
16977;SDS011;8605;52.548;4.918;2022-10-26T12:33:27;9.88;;;2.30;;
16977;SDS011;8605;52.548;4.918;2022-10-26T12:38:55;5.50;;;3.15;;
16977;SDS011;8605;52.548;4.918;2022-10-26T12:44:32;3.15;;;1.35;;
16977;SDS011;8605;52.548;4.918;2022-10-26T12:50:00;5.57;;;1.40;;
16977;SDS011;8605;52.548;4.918;2022-10-26T13:01:41;4.00;;;1.58;;
16977;SDS011;8605;52.548;4.918;2022-10-26T13:07:18;11.38;;;2.25;;
16977;SDS011;8605;52.548;4.918;2022-10-26T13:12:45;5.05;;;1.10;;
16977;SDS011;8605;52.548;4.918;2022-10-26T13:18:13;4.40;;;1.90;;
16977;SDS011;8605;52.548;4.918;2022-10-26T13:23:38;2.90;;;1.77;;
16977;SDS011;8605;52.548;4.918;2022-10-26T13:29:28;2.97;;;1.90;;
16977;SDS011;8605;52.548;4.918;2022-10-26T13:34:54;5.60;;;2.38;;
16977;SDS011;8605;52.548;4.918;2022-10-26T13:40:19;3.08;;;1.65;;
16977;SDS011;8605;52.548;4.918;2022-10-26T13:45:46;2.22;;;1.85;;
16977;SDS011;8605;52.548;4.918;2022-10-26T13:51:15;14.05;;;2.08;;
16977;SDS011;8605;52.548;4.918;2022-10-26T13:56:42;4.75;;;1.65;;
16977;SDS011;8605;52.548;4.918;2022-10-26T14:02:21;1.55;;;1.17;;
16977;SDS011;8605;52.548;4.918;2022-10-26T14:07:48;8.45;;;1.55;;
16977;SDS011;8605;52.548;4.918;2022-10-26T14:13:17;3.33;;;1.35;;
16977;SDS011;8605;52.548;4.918;2022-10-26T14:18:43;7.68;;;1.48;;
16977;SDS011;8605;52.548;4.918;2022-10-26T14:24:18;8.70;;;2.38;;
16977;SDS011;8605;52.548;4.918;2022-10-26T14:30:15;4.90;;;1.05;;
16977;SDS011;8605;52.548;4.918;2022-10-26T14:35:44;8.13;;;2.40;;
16977;SDS011;8605;52.548;4.918;2022-10-26T14:41:10;6.95;;;1.35;;
16977;SDS011;8605;52.548;4.918;2022-10-26T14:46:36;3.30;;;2.30;;
16977;SDS011;8605;52.548;4.918;2022-10-26T14:52:22;4.40;;;1.00;;
16977;SDS011;8605;52.548;4.918;2022-10-26T14:57:52;1.38;;;1.00;;
16977;SDS011;8605;52.548;4.918;2022-10-26T15:03:30;5.13;;;1.80;;
16977;SDS011;8605;52.548;4.918;2022-10-26T15:08:56;5.90;;;1.75;;
16977;SDS011;8605;52.548;4.918;2022-10-26T15:14:47;2.83;;;1.15;;
16977;SDS011;8605;52.548;4.918;2022-10-26T15:20:13;3.88;;;1.35;;
16977;SDS011;8605;52.548;4.918;2022-10-26T15:25:37;1.75;;;1.40;;
16977;SDS011;8605;52.548;4.918;2022-10-26T15:31:05;4.80;;;1.60;;
16977;SDS011;8605;52.548;4.918;2022-10-26T15:36:29;6.43;;;1.50;;
16977;SDS011;8605;52.548;4.918;2022-10-26T15:41:53;1.60;;;1.50;;
16977;SDS011;8605;52.548;4.918;2022-10-26T15:47:18;11.73;;;2.03;;
16977;SDS011;8605;52.548;4.918;2022-10-26T15:52:41;2.00;;;0.98;;
16977;SDS011;8605;52.548;4.918;2022-10-26T15:58:09;4.93;;;1.52;;
16977;SDS011;8605;52.548;4.918;2022-10-26T16:03:34;3.08;;;1.23;;
16977;SDS011;8605;52.548;4.918;2022-10-26T16:08:58;7.63;;;1.63;;
16977;SDS011;8605;52.548;4.918;2022-10-26T16:14:22;12.65;;;2.08;;
16977;SDS011;8605;52.548;4.918;2022-10-26T16:19:49;5.05;;;1.15;;
16977;SDS011;8605;52.548;4.918;2022-10-26T16:25:14;6.05;;;1.83;;
16977;SDS011;8605;52.548;4.918;2022-10-26T16:30:41;7.10;;;1.60;;
16977;SDS011;8605;52.548;4.918;2022-10-26T16:36:13;5.25;;;1.65;;
16977;SDS011;8605;52.548;4.918;2022-10-26T16:41:36;3.92;;;2.17;;
16977;SDS011;8605;52.548;4.918;2022-10-26T16:46:59;3.05;;;1.17;;
16977;SDS011;8605;52.548;4.918;2022-10-26T16:52:23;5.55;;;1.50;;
16977;SDS011;8605;52.548;4.918;2022-10-26T16:57:46;5.80;;;1.40;;
16977;SDS011;8605;52.548;4.918;2022-10-26T17:03:10;4.32;;;1.98;;
16977;SDS011;8605;52.548;4.918;2022-10-26T17:08:35;4.80;;;1.60;;
16977;SDS011;8605;52.548;4.918;2022-10-26T17:13:58;4.60;;;2.13;;
16977;SDS011;8605;52.548;4.918;2022-10-26T17:19:21;5.80;;;2.53;;
16977;SDS011;8605;52.548;4.918;2022-10-26T17:24:45;5.45;;;2.67;;
16977;SDS011;8605;52.548;4.918;2022-10-26T17:30:09;7.47;;;3.78;;
16977;SDS011;8605;52.548;4.918;2022-10-26T17:35:32;12.23;;;1.65;;
16977;SDS011;8605;52.548;4.918;2022-10-26T17:40:59;3.05;;;1.15;;
16977;SDS011;8605;52.548;4.918;2022-10-26T17:46:24;7.05;;;1.55;;
16977;SDS011;8605;52.548;4.918;2022-10-26T17:51:47;5.57;;;1.70;;
16977;SDS011;8605;52.548;4.918;2022-10-26T17:57:12;8.20;;;1.70;;
16977;SDS011;8605;52.548;4.918;2022-10-26T18:02:35;7.82;;;1.55;;
16977;SDS011;8605;52.548;4.918;2022-10-26T18:07:58;6.82;;;1.52;;
16977;SDS011;8605;52.548;4.918;2022-10-26T18:13:23;10.30;;;1.83;;
16977;SDS011;8605;52.548;4.918;2022-10-26T18:18:46;3.17;;;1.88;;
16977;SDS011;8605;52.548;4.918;2022-10-26T18:24:10;4.55;;;1.35;;
16977;SDS011;8605;52.548;4.918;2022-10-26T18:29:35;4.95;;;1.40;;
16977;SDS011;8605;52.548;4.918;2022-10-26T18:35:00;7.70;;;1.42;;
16977;SDS011;8605;52.548;4.918;2022-10-26T18:40:23;6.15;;;2.55;;
16977;SDS011;8605;52.548;4.918;2022-10-26T18:45:48;5.47;;;1.67;;
16977;SDS011;8605;52.548;4.918;2022-10-26T18:51:12;7.18;;;2.35;;
16977;SDS011;8605;52.548;4.918;2022-10-26T18:56:36;3.00;;;1.38;;
16977;SDS011;8605;52.548;4.918;2022-10-26T19:02:00;9.10;;;2.53;;
16977;SDS011;8605;52.548;4.918;2022-10-26T19:07:24;9.13;;;1.70;;
16977;SDS011;8605;52.548;4.918;2022-10-26T19:12:47;3.78;;;1.33;;
16977;SDS011;8605;52.548;4.918;2022-10-26T19:18:12;7.18;;;3.50;;
16977;SDS011;8605;52.548;4.918;2022-10-26T19:23:36;6.07;;;2.60;;
16977;SDS011;8605;52.548;4.918;2022-10-26T19:29:01;6.90;;;2.35;;
16977;SDS011;8605;52.548;4.918;2022-10-26T19:34:27;9.80;;;3.05;;
16977;SDS011;8605;52.548;4.918;2022-10-26T19:39:50;3.70;;;2.35;;
16977;SDS011;8605;52.548;4.918;2022-10-26T19:45:13;6.03;;;2.65;;
16977;SDS011;8605;52.548;4.918;2022-10-26T19:50:38;16.33;;;3.28;;
16977;SDS011;8605;52.548;4.918;2022-10-26T19:56:01;8.68;;;3.20;;
16977;SDS011;8605;52.548;4.918;2022-10-26T20:01:27;3.17;;;1.60;;
16977;SDS011;8605;52.548;4.918;2022-10-26T20:06:51;6.30;;;2.75;;
16977;SDS011;8605;52.548;4.918;2022-10-26T20:12:14;10.57;;;2.97;;
16977;SDS011;8605;52.548;4.918;2022-10-26T20:17:37;7.35;;;2.05;;
16977;SDS011;8605;52.548;4.918;2022-10-26T20:23:07;9.80;;;2.55;;
16977;SDS011;8605;52.548;4.918;2022-10-26T20:28:31;8.93;;;2.15;;
16977;SDS011;8605;52.548;4.918;2022-10-26T20:33:54;4.68;;;2.25;;
16977;SDS011;8605;52.548;4.918;2022-10-26T20:39:19;7.03;;;2.03;;
16977;SDS011;8605;52.548;4.918;2022-10-26T20:44:44;7.80;;;2.50;;
16977;SDS011;8605;52.548;4.918;2022-10-26T20:50:08;6.25;;;3.05;;
16977;SDS011;8605;52.548;4.918;2022-10-26T20:55:35;10.80;;;3.30;;
16977;SDS011;8605;52.548;4.918;2022-10-26T21:01:01;5.20;;;2.20;;
16977;SDS011;8605;52.548;4.918;2022-10-26T21:06:26;9.87;;;3.10;;
16977;SDS011;8605;52.548;4.918;2022-10-26T21:11:50;4.87;;;3.07;;
16977;SDS011;8605;52.548;4.918;2022-10-26T21:17:18;5.28;;;2.03;;
16977;SDS011;8605;52.548;4.918;2022-10-26T21:22:41;6.37;;;2.07;;
16977;SDS011;8605;52.548;4.918;2022-10-26T21:28:05;7.43;;;1.80;;
16977;SDS011;8605;52.548;4.918;2022-10-26T21:33:28;7.27;;;2.17;;
16977;SDS011;8605;52.548;4.918;2022-10-26T21:38:52;8.23;;;2.87;;
16977;SDS011;8605;52.548;4.918;2022-10-26T21:44:17;9.50;;;2.77;;
16977;SDS011;8605;52.548;4.918;2022-10-26T21:50:00;6.10;;;2.07;;
16977;SDS011;8605;52.548;4.918;2022-10-26T21:55:23;7.03;;;2.03;;
16977;SDS011;8605;52.548;4.918;2022-10-26T22:00:47;6.57;;;1.80;;
16977;SDS011;8605;52.548;4.918;2022-10-26T22:06:11;10.47;;;2.50;;
16977;SDS011;8605;52.548;4.918;2022-10-26T22:11:35;6.60;;;2.10;;
16977;SDS011;8605;52.548;4.918;2022-10-26T22:16:59;3.77;;;1.67;;
16977;SDS011;8605;52.548;4.918;2022-10-26T22:22:22;6.00;;;2.80;;
16977;SDS011;8605;52.548;4.918;2022-10-26T22:27:46;2.07;;;1.87;;
16977;SDS011;8605;52.548;4.918;2022-10-26T22:33:10;8.93;;;3.07;;
16977;SDS011;8605;52.548;4.918;2022-10-26T22:38:34;3.03;;;2.10;;
16977;SDS011;8605;52.548;4.918;2022-10-26T22:43:57;7.53;;;2.83;;
16977;SDS011;8605;52.548;4.918;2022-10-26T22:49:21;6.50;;;1.77;;
16977;SDS011;8605;52.548;4.918;2022-10-26T22:54:45;5.00;;;2.10;;
16977;SDS011;8605;52.548;4.918;2022-10-26T23:00:08;6.10;;;2.37;;
16977;SDS011;8605;52.548;4.918;2022-10-26T23:05:33;8.23;;;1.97;;
16977;SDS011;8605;52.548;4.918;2022-10-26T23:10:59;2.03;;;1.83;;
16977;SDS011;8605;52.548;4.918;2022-10-26T23:16:23;4.07;;;2.07;;
16977;SDS011;8605;52.548;4.918;2022-10-26T23:21:48;3.87;;;1.80;;
16977;SDS011;8605;52.548;4.918;2022-10-26T23:27:11;7.03;;;2.47;;
16977;SDS011;8605;52.548;4.918;2022-10-26T23:32:35;5.17;;;2.83;;
16977;SDS011;8605;52.548;4.918;2022-10-26T23:37:59;13.73;;;3.50;;
16977;SDS011;8605;52.548;4.918;2022-10-26T23:43:22;7.43;;;2.50;;
16977;SDS011;8605;52.548;4.918;2022-10-26T23:48:46;6.23;;;2.50;;
16977;SDS011;8605;52.548;4.918;2022-10-26T23:54:10;6.50;;;2.50;;
16977;SDS011;8605;52.548;4.918;2022-10-26T23:59:33;3.10;;;2.43;;
